LTAC/ESB METAR and TAF weather

Enter ICAO airport designator
Station Type Date Time Source
LTAC METAR 2022/01/29 01:20 UTC NOAA

LTAC 290120Z 18004KT 9999 BKN020 M08/M10 Q1020 NOSIG


Station Type Date Time Source
LTAC Decoded METAR 2022/01/29 01:20 UTC NOAA

Ankara / Esenboga, Turkey (LTAC) 40-07N 032-59E 949M
Jan 28, 2022 - 08:20 PM EST / 2022.01.29 0120 UTC
Wind: from the S (180 degrees) at 5 MPH (4 KT):0
Visibility: greater than 7 mile(s):0
Sky conditions: mostly cloudy
Temperature: 17 F (-8 C)
Windchill: 8 F (-13 C):1
Dew Point: 14 F (-10 C)
Relative Humidity: 85%
Pressure (altimeter): 30.12 in. Hg (1020 hPa)
ob: LTAC 290120Z 18004KT 9999 BKN020 M08/M10 Q1020 NOSIG
cycle: 1

Station Type Date Time Source
LTAC TAF 2022/01/28 18:03 UTC NOAA

TAF TAF LTAC 281640Z 2818/2918 VRB02KT 8000 SCT016
BECMG 2822/2901 4000 BR PROB40
TEMPO 2902/2906 1200 BCFG BKN004
BECMG 2907/2909 9999 NSW BKN025

Example: see airport list